METAR Data
IDs: Format: Raw Decoded Include TAF

Data at: 0318 UTC 25 Feb 2021

LJCE 250300Z AUTO 27001KT 9000 NCD 01/00 Q1034